Time;durP1;ratioP1;P1;durP2;ratioP2;P2;SDS_P1;SDS_P2;PMS_P1;PMS_P2;Temp;Humidity;BMP_temperature;BMP_pressure;BME280_temperature;BME280_humidity;BME280_pressure;Samples;Min_cycle;Max_cycle;Signal;HPM_P1;HPM_P2
2023/01/13 00:01:43;;;;;;;24.63;4.97;;;9.00;99.90;;;;;;5060030;28;20032;-85
2023/01/13 00:04:12;;;;;;;22.08;4.50;;;9.00;99.90;;;;;;5062194;28;20451;-85
2023/01/13 00:06:37;;;;;;;20.58;4.85;;;8.90;99.90;;;;;;5061588;28;20048;-86
2023/01/13 00:09:03;;;;;;;25.50;5.05;;;8.80;99.90;;;;;;5062346;28;20045;-86
2023/01/13 00:11:29;;;;;;;22.85;4.70;;;8.80;99.90;;;;;;5060539;28;20060;-86
2023/01/13 00:13:55;;;;;;;23.35;4.63;;;8.70;99.90;;;;;;5060652;28;20044;-85
2023/01/13 00:16:21;;;;;;;20.73;4.30;;;8.70;99.90;;;;;;5064991;28;20104;-85
2023/01/13 00:18:48;;;;;;;24.60;4.97;;;8.60;99.90;;;;;;5061201;28;20078;-86
2023/01/13 00:21:16;;;;;;;23.30;4.70;;;8.60;99.90;;;;;;5044372;28;20632;-85
2023/01/13 00:23:42;;;;;;;24.38;4.97;;;8.60;99.90;;;;;;5033025;28;20036;-84
2023/01/13 00:26:34;;;;;;;20.42;5.05;;;8.50;99.90;;;;;;5042879;28;20044;-85
2023/01/13 00:29:00;;;;;;;30.63;4.93;;;8.50;99.90;;;;;;5061586;28;20112;-85
2023/01/13 00:31:28;;;;;;;26.65;4.88;;;8.40;99.90;;;;;;5056844;28;20048;-85
2023/01/13 00:33:59;;;;;;;23.92;5.00;;;8.40;99.90;;;;;;5046755;28;20570;-85
2023/01/13 00:36:25;;;;;;;27.90;5.45;;;8.40;99.90;;;;;;5038580;28;20086;-85
2023/01/13 00:38:51;;;;;;;33.60;5.45;;;8.40;99.90;;;;;;5060604;28;20064;-85
2023/01/13 00:41:19;;;;;;;26.63;5.78;;;8.30;99.90;;;;;;5049497;28;20060;-85
2023/01/13 00:43:46;;;;;;;23.90;5.82;;;8.30;99.90;;;;;;5032975;28;20047;-85
2023/01/13 00:46:14;;;;;;;24.20;5.07;;;8.30;99.90;;;;;;5043954;28;20047;-85
2023/01/13 00:48:40;;;;;;;26.90;5.30;;;8.20;99.90;;;;;;5041624;28;20115;-85
2023/01/13 00:51:17;;;;;;;27.75;5.43;;;8.20;99.90;;;;;;5035646;28;20559;-85
2023/01/13 00:53:48;;;;;;;34.05;6.28;;;8.20;99.90;;;;;;5046945;28;20128;-85
2023/01/13 00:56:17;;;;;;;27.90;5.45;;;6.80;99.90;;;;;;5058182;28;20032;-85
2023/01/13 00:58:44;;;;;;;30.17;6.22;;;8.20;99.90;;;;;;5060439;28;20076;-86
2023/01/13 01:01:13;;;;;;;30.58;5.25;;;8.10;99.90;;;;;;5034044;28;20505;-85
2023/01/13 01:03:39;;;;;;;27.00;6.00;;;8.30;99.90;;;;;;5058175;28;20042;-85
2023/01/13 01:06:08;;;;;;;30.27;5.57;;;8.10;99.90;;;;;;5058745;28;20043;-85
2023/01/13 01:08:35;;;;;;;30.02;5.68;;;8.10;99.90;;;;;;5059079;28;20079;-85
2023/01/13 01:11:03;;;;;;;25.17;5.75;;;8.10;99.90;;;;;;5052900;28;20064;-86
2023/01/13 01:13:29;;;;;;;33.65;6.93;;;8.00;99.90;;;;;;5056075;28;20052;-86
2023/01/13 01:15:55;;;;;;;30.67;6.53;;;8.00;99.90;;;;;;5059395;28;20036;-86
2023/01/13 01:18:20;;;;;;;23.88;5.75;;;8.00;99.90;;;;;;5033952;28;20041;-85
2023/01/13 01:20:46;;;;;;;22.38;5.70;;;8.00;99.90;;;;;;5076177;28;20305;-85
2023/01/13 01:23:12;;;;;;;36.88;5.70;;;7.90;99.90;;;;;;5039755;28;20044;-85
2023/01/13 01:25:37;;;;;;;27.60;5.85;;;7.90;99.90;;;;;;5019253;28;20393;-85
2023/01/13 01:28:03;;;;;;;29.10;5.78;;;7.90;99.90;;;;;;5040547;28;20036;-85
2023/01/13 01:30:29;;;;;;;31.88;5.88;;;7.90;99.90;;;;;;5059994;28;20067;-86
2023/01/13 01:32:56;;;;;;;25.05;5.78;;;7.90;99.90;;;;;;5058071;28;20119;-84
2023/01/13 01:35:23;;;;;;;30.33;6.38;;;7.90;99.90;;;;;;5035641;28;20123;-85
2023/01/13 01:37:49;;;;;;;25.50;5.85;;;7.80;99.90;;;;;;5035119;28;20504;-85
2023/01/13 01:40:14;;;;;;;28.40;5.63;;;7.80;99.90;;;;;;5018627;28;20287;-86
2023/01/13 01:45:27;;;;;;;26.23;5.40;;;7.80;99.90;;;;;;5061833;28;20124;-85
2023/01/13 01:47:59;;;;;;;25.88;5.28;;;7.90;99.90;;;;;;5042113;28;20287;-84
2023/01/13 01:50:26;;;;;;;26.80;5.95;;;7.90;99.90;;;;;;5043956;28;20398;-85
2023/01/13 01:53:07;;;;;;;31.55;5.85;;;7.90;99.90;;;;;;5063226;28;20481;-85
2023/01/13 01:55:35;;;;;;;28.67;6.45;;;7.90;99.90;;;;;;5073460;28;20389;-85
2023/01/13 01:58:06;;;;;;;31.10;6.05;;;7.90;99.90;;;;;;5061252;28;20068;-85
2023/01/13 02:00:32;;;;;;;27.30;5.38;;;7.90;99.90;;;;;;5046753;28;20036;-86
2023/01/13 02:02:59;;;;;;;27.45;5.60;;;7.90;99.90;;;;;;5055544;28;20045;-86
2023/01/13 02:05:25;;;;;;;30.80;5.78;;;7.80;99.90;;;;;;5056911;28;20094;-86
2023/01/13 02:07:54;;;;;;;27.85;5.80;;;7.80;99.90;;;;;;5041197;28;21231;-85
2023/01/13 02:10:22;;;;;;;25.52;5.60;;;7.90;99.90;;;;;;5075062;28;20029;-85
2023/01/13 02:12:50;;;;;;;24.52;5.00;;;7.80;99.90;;;;;;5038912;28;21204;-86
2023/01/13 02:15:33;;;;;;;30.02;5.45;;;7.90;99.90;;;;;;5035042;28;20301;-85
2023/01/13 02:18:33;;;;;;;22.90;5.25;;;7.90;99.90;;;;;;5037343;28;21129;-85
2023/01/13 02:21:08;;;;;;;32.83;6.00;;;7.90;99.90;;;;;;5057180;28;20036;-86
2023/01/13 02:27:01;;;;;;;27.42;5.82;;;7.90;99.90;;;;;;5070340;28;20045;-85
2023/01/13 02:32:58;;;;;;;28.92;5.70;;;8.00;99.90;;;;;;5071424;28;20048;-85
2023/01/13 02:35:49;;;;;;;28.33;5.72;;;8.00;99.90;;;;;;5075631;28;20510;-85
2023/01/13 02:38:17;;;;;;;28.70;5.95;;;8.00;99.90;;;;;;5054278;28;20045;-85
2023/01/13 02:40:55;;;;;;;30.38;5.82;;;8.00;99.90;;;;;;5055137;28;20490;-84
2023/01/13 02:46:30;;;;;;;24.13;5.88;;;8.00;99.90;;;;;;5080431;28;20410;-84
2023/01/13 02:49:00;;;;;;;29.55;6.07;;;8.00;99.90;;;;;;5048382;28;20048;-85
2023/01/13 02:51:29;;;;;;;35.08;6.00;;;8.00;99.90;;;;;;5049254;28;20059;-85
2023/01/13 02:54:19;;;;;;;25.52;5.13;;;8.00;99.90;;;;;;5062812;28;20033;-84
2023/01/13 02:56:48;;;;;;;29.42;5.90;;;8.00;99.90;;;;;;5045661;28;20040;-85
2023/01/13 02:59:14;;;;;;;30.10;5.47;;;8.00;99.90;;;;;;5061785;28;20070;-85
2023/01/13 03:01:41;;;;;;;29.48;6.10;;;7.90;99.90;;;;;;5038170;28;20604;-85
2023/01/13 03:04:34;;;;;;;30.48;6.55;;;8.20;99.90;;;;;;5037820;28;20040;-86
2023/01/13 03:07:22;;;;;;;32.25;5.80;;;8.00;99.90;;;;;;5060204;28;20158;-85
2023/01/13 03:10:06;;;;;;;26.65;5.00;;;8.00;99.90;;;;;;5063034;28;20120;-83
2023/01/13 03:13:18;;;;;;;26.73;5.82;;;8.00;99.90;;;;;;5048451;28;20075;-85
2023/01/13 03:15:51;;;;;;;26.67;5.68;;;8.10;99.90;;;;;;5016145;28;20053;-85
2023/01/13 03:18:44;;;;;;;31.00;5.95;;;8.10;99.90;;;;;;5050540;28;20033;-85
2023/01/13 03:21:30;;;;;;;24.35;5.28;;;8.00;99.90;;;;;;5061002;28;20045;-83
2023/01/13 03:23:58;;;;;;;25.63;5.78;;;8.00;99.90;;;;;;5054192;28;20060;-83
2023/01/13 03:26:53;;;;;;;23.38;4.65;;;8.00;99.90;;;;;;5043581;28;20036;-84
2023/01/13 03:29:24;;;;;;;26.73;5.50;;;8.00;99.90;;;;;;5052388;28;20203;-85
2023/01/13 03:32:14;;;;;;;26.27;5.47;;;7.90;99.90;;;;;;5079158;28;20029;-85
2023/01/13 03:34:54;;;;;;;23.45;5.18;;;7.90;99.90;;;;;;5061890;28;20068;-85
2023/01/13 03:37:27;;;;;;;28.33;5.82;;;7.90;99.90;;;;;;5056910;28;20037;-85
2023/01/13 03:40:06;;;;;;;26.33;5.63;;;7.90;99.90;;;;;;5057390;28;20631;-85
2023/01/13 03:42:36;;;;;;;24.08;4.60;;;7.90;99.90;;;;;;5048439;28;20087;-85
2023/01/13 03:45:12;;;;;;;25.38;5.10;;;7.90;99.90;;;;;;5061149;28;20137;-85
2023/01/13 03:47:50;;;;;;;28.92;5.20;;;7.90;99.90;;;;;;5044519;28;20044;-85
2023/01/13 03:50:24;;;;;;;24.10;4.88;;;8.00;99.90;;;;;;5044758;28;20050;-85
2023/01/13 03:53:06;;;;;;;24.70;4.95;;;8.00;99.90;;;;;;5075476;28;20044;-85
2023/01/13 03:55:36;;;;;;;24.63;4.57;;;8.00;99.90;;;;;;5058107;28;20041;-84
2023/01/13 03:58:18;;;;;;;23.33;5.00;;;7.90;99.90;;;;;;5054778;28;20036;-84
2023/01/13 04:00:50;;;;;;;24.58;5.00;;;8.00;99.90;;;;;;5043657;28;20118;-85
2023/01/13 04:03:30;;;;;;;27.17;5.30;;;8.00;99.90;;;;;;5065902;28;20116;-85
2023/01/13 04:06:04;;;;;;;27.13;5.47;;;7.90;99.90;;;;;;5044310;28;20041;-85
2023/01/13 04:08:31;;;;;;;26.35;5.57;;;7.90;99.90;;;;;;5059500;28;20044;-84
2023/01/13 04:11:14;;;;;;;28.15;5.10;;;7.90;99.90;;;;;;5071384;28;20133;-85
2023/01/13 04:13:42;;;;;;;27.20;5.22;;;7.90;99.90;;;;;;5064601;28;20047;-84
2023/01/13 04:16:10;;;;;;;24.27;4.85;;;7.80;99.90;;;;;;5042200;28;20163;-85
2023/01/13 04:18:37;;;;;;;26.38;5.32;;;7.80;99.90;;;;;;5058846;28;20093;-85
2023/01/13 04:21:04;;;;;;;26.20;4.97;;;7.80;99.90;;;;;;5054883;28;20457;-84
2023/01/13 04:23:30;;;;;;;33.33;5.72;;;7.80;99.90;;;;;;5045125;28;20174;-84
2023/01/13 04:25:55;;;;;;;26.05;5.18;;;7.80;99.90;;;;;;5055826;28;20123;-85
2023/01/13 04:28:22;;;;;;;25.33;5.20;;;7.80;99.90;;;;;;5061906;28;20063;-85
2023/01/13 04:30:47;;;;;;;30.98;5.43;;;7.80;99.90;;;;;;5042725;28;20313;-84
2023/01/13 04:33:14;;;;;;;29.50;6.03;;;7.80;99.90;;;;;;5044398;28;20298;-85
2023/01/13 04:35:40;;;;;;;28.98;5.43;;;7.80;99.90;;;;;;5059615;28;20047;-85
2023/01/13 04:38:09;;;;;;;23.00;5.50;;;7.80;99.90;;;;;;5059024;28;20096;-84
2023/01/13 04:40:35;;;;;;;24.00;4.90;;;7.80;99.90;;;;;;5058918;28;20045;-84
2023/01/13 04:43:01;;;;;;;28.80;6.22;;;7.80;99.90;;;;;;5035728;28;20482;-84
2023/01/13 04:45:27;;;;;;;33.50;6.18;;;7.80;99.90;;;;;;5060857;28;20456;-84
2023/01/13 04:47:53;;;;;;;21.88;5.18;;;7.80;99.90;;;;;;5052716;28;20041;-84
2023/01/13 04:50:19;;;;;;;28.58;5.18;;;8.00;99.90;;;;;;5036307;28;20045;-84
2023/01/13 04:52:52;;;;;;;25.25;5.82;;;7.80;99.90;;;;;;5061112;28;20644;-84
2023/01/13 04:55:19;;;;;;;19.98;4.55;;;8.00;99.90;;;;;;5041806;28;20041;-84
2023/01/13 04:57:45;;;;;;;28.80;5.90;;;7.90;99.90;;;;;;5058369;28;20068;-84
2023/01/13 05:00:16;;;;;;;26.23;5.45;;;7.90;99.90;;;;;;5044692;28;20478;-84
2023/01/13 05:02:42;;;;;;;21.92;5.05;;;7.90;99.90;;;;;;5036194;28;20036;-84
2023/01/13 05:05:08;;;;;;;29.17;5.55;;;8.00;99.90;;;;;;5043568;28;20455;-84
2023/01/13 05:07:34;;;;;;;28.23;5.63;;;8.00;99.90;;;;;;5070949;28;20055;-84
2023/01/13 05:09:59;;;;;;;27.80;5.47;;;8.00;99.90;;;;;;5047432;28;20033;-84
2023/01/13 05:17:59;;;;;;;26.30;5.30;;;8.10;99.90;;;;;;5071606;28;20045;-84
2023/01/13 05:20:25;;;;;;;23.60;4.65;;;8.10;99.90;;;;;;5042059;28;20044;-84
2023/01/13 05:25:40;;;;;;;32.28;5.45;;;8.10;99.90;;;;;;5046905;28;20048;-84
2023/01/13 05:28:07;;;;;;;25.13;6.35;;;8.10;99.90;;;;;;5037956;28;20055;-84
2023/01/13 05:30:37;;;;;;;28.02;5.53;;;8.10;99.90;;;;;;5042854;28;20041;-83
2023/01/13 05:33:03;;;;;;;23.15;4.85;;;8.20;99.90;;;;;;5046692;28;20127;-85
2023/01/13 05:35:29;;;;;;;26.35;4.82;;;8.20;99.90;;;;;;5041542;28;20461;-84
2023/01/13 05:37:55;;;;;;;24.95;4.85;;;8.20;99.90;;;;;;5058036;28;20048;-84
2023/01/13 05:43:19;;;;;;;25.42;4.82;;;8.20;99.90;;;;;;5060565;28;20498;-84
2023/01/13 05:45:45;;;;;;;28.30;5.30;;;8.20;99.90;;;;;;5034648;28;20490;-84
2023/01/13 05:48:12;;;;;;;20.15;4.47;;;8.20;99.90;;;;;;5052272;28;20467;-84
2023/01/13 05:50:37;;;;;;;21.92;4.55;;;8.20;99.90;;;;;;5062422;28;20586;-85
2023/01/13 05:53:03;;;;;;;27.88;5.18;;;8.20;99.90;;;;;;5055756;28;20040;-85
2023/01/13 05:55:29;;;;;;;28.45;5.88;;;7.70;99.90;;;;;;5056205;28;20071;-85
2023/01/13 05:57:55;;;;;;;21.08;4.70;;;8.20;99.90;;;;;;5029709;28;20067;-85
2023/01/13 06:00:21;;;;;;;22.25;4.70;;;8.20;99.90;;;;;;5055092;28;20040;-85
2023/01/13 06:02:46;;;;;;;25.08;4.65;;;8.20;99.90;;;;;;5035350;28;20645;-85
2023/01/13 06:05:12;;;;;;;20.92;5.05;;;8.20;99.90;;;;;;5037408;28;20056;-85
2023/01/13 06:07:38;;;;;;;25.08;5.32;;;8.20;99.90;;;;;;5019109;28;20039;-86
2023/01/13 06:10:04;;;;;;;27.92;4.70;;;8.20;99.90;;;;;;5034278;28;20041;-86
2023/01/13 06:12:29;;;;;;;29.20;5.18;;;8.20;99.90;;;;;;5042445;28;20089;-86
2023/01/13 06:14:55;;;;;;;25.60;4.72;;;8.20;99.90;;;;;;5063835;28;20486;-85
2023/01/13 06:17:21;;;;;;;24.58;4.70;;;8.20;99.90;;;;;;5044736;28;20048;-85
2023/01/13 06:19:47;;;;;;;27.10;4.88;;;8.40;99.90;;;;;;5059593;28;20498;-86
2023/01/13 06:22:15;;;;;;;25.40;4.90;;;8.20;99.90;;;;;;5040618;28;20733;-86
2023/01/13 06:24:42;;;;;;;24.35;4.78;;;8.20;99.90;;;;;;5054153;28;20102;-85
2023/01/13 06:27:08;;;;;;;22.48;5.10;;;8.20;99.90;;;;;;5042375;28;20071;-84
2023/01/13 06:29:34;;;;;;;24.05;5.15;;;8.20;99.90;;;;;;5053976;28;20641;-85
2023/01/13 06:32:10;;;;;;;23.60;4.72;;;8.20;99.90;;;;;;5035299;28;20102;-85
2023/01/13 06:34:36;;;;;;;21.88;4.35;;;8.20;99.90;;;;;;5058750;28;20044;-84
2023/01/13 06:37:03;;;;;;;21.90;5.10;;;8.20;99.90;;;;;;5056994;28;20079;-85
2023/01/13 06:39:30;;;;;;;25.83;4.65;;;8.20;99.90;;;;;;5054014;28;20036;-85
2023/01/13 06:44:42;;;;;;;22.02;4.75;;;8.20;99.90;;;;;;5054701;28;20036;-85
2023/01/13 06:47:08;;;;;;;23.33;4.10;;;8.30;99.90;;;;;;5044569;28;20041;-85
2023/01/13 06:49:34;;;;;;;20.20;4.65;;;8.20;99.90;;;;;;5059894;28;20094;-85
2023/01/13 06:51:59;;;;;;;27.85;5.00;;;8.20;99.90;;;;;;5034506;28;20040;-84
2023/01/13 06:54:25;;;;;;;20.60;3.88;;;8.20;99.90;;;;;;5041774;28;20048;-85
2023/01/13 06:56:51;;;;;;;17.75;3.90;;;8.10;99.90;;;;;;5066616;28;20048;-85
2023/01/13 06:59:16;;;;;;;19.88;4.15;;;8.10;99.90;;;;;;5024681;28;20041;-86
2023/01/13 07:01:42;;;;;;;25.00;4.38;;;8.00;99.90;;;;;;5058681;28;20076;-86
2023/01/13 07:04:08;;;;;;;16.75;3.78;;;7.90;99.90;;;;;;5044402;28;20478;-86
2023/01/13 07:06:34;;;;;;;22.48;4.18;;;7.90;99.90;;;;;;5045336;28;20074;-85
2023/01/13 07:08:59;;;;;;;22.08;4.35;;;7.80;99.90;;;;;;5041692;28;20036;-85
2023/01/13 07:11:25;;;;;;;18.67;3.60;;;7.80;99.90;;;;;;5021627;28;20605;-85
2023/01/13 07:16:35;;;;;;;22.00;3.92;;;7.80;99.90;;;;;;5071270;28;20076;-86
2023/01/13 07:19:01;;;;;;;21.73;4.30;;;7.70;99.90;;;;;;5033419;28;20071;-87
2023/01/13 07:21:27;;;;;;;18.95;4.25;;;7.70;99.90;;;;;;5039208;28;20037;-87
2023/01/13 07:23:52;;;;;;;22.45;4.68;;;7.70;99.90;;;;;;5025476;28;20048;-85
2023/01/13 07:26:18;;;;;;;19.98;3.75;;;7.70;99.90;;;;;;5038050;28;20662;-87
2023/01/13 07:28:44;;;;;;;19.48;3.78;;;7.60;99.90;;;;;;5063485;28;20044;-87
2023/01/13 07:31:15;;;;;;;20.98;3.72;;;7.60;99.90;;;;;;5037440;28;20040;-88
2023/01/13 07:33:41;;;;;;;18.67;3.80;;;7.70;99.90;;;;;;5059348;28;20040;-86
2023/01/13 07:36:07;;;;;;;20.65;4.45;;;7.50;99.90;;;;;;5063541;28;20032;-86
2023/01/13 07:38:34;;;;;;;19.73;3.33;;;7.50;99.90;;;;;;5080693;28;20033;-87
2023/01/13 07:43:30;;;;;;;20.13;3.50;;;7.50;99.90;;;;;;5058642;28;20272;-86
2023/01/13 07:43:49;;;;;;;19.60;3.80;;;7.50;99.90;;;;;;5060206;28;20182;-86
2023/01/13 07:46:16;;;;;;;23.02;3.95;;;7.70;99.90;;;;;;5044456;28;20113;-87
2023/01/13 07:48:42;;;;;;;22.50;3.92;;;7.50;99.90;;;;;;5065528;28;20051;-87
2023/01/13 07:51:10;;;;;;;22.67;4.88;;;7.50;99.90;;;;;;5047289;28;20502;-87
2023/01/13 07:53:36;;;;;;;18.88;4.40;;;7.40;99.90;;;;;;5043385;28;20460;-86
2023/01/13 07:56:03;;;;;;;20.40;4.35;;;7.40;99.90;;;;;;5043283;28;20391;-86
2023/01/13 07:58:29;;;;;;;20.00;3.92;;;7.40;99.90;;;;;;5047160;28;20108;-86
2023/01/13 08:00:56;;;;;;;23.23;4.18;;;7.40;99.90;;;;;;5030294;28;20033;-85
2023/01/13 08:03:22;;;;;;;22.38;4.40;;;7.30;99.90;;;;;;5058251;28;20098;-87
2023/01/13 08:05:48;;;;;;;18.98;3.60;;;7.40;99.90;;;;;;5056594;28;20029;-86
2023/01/13 08:08:15;;;;;;;21.40;4.00;;;7.30;99.90;;;;;;5025232;28;20102;-86
2023/01/13 08:10:41;;;;;;;26.63;5.03;;;7.30;99.90;;;;;;5079782;28;20393;-86
2023/01/13 08:13:19;;;;;;;19.92;4.80;;;7.30;99.90;;;;;;5062875;28;20516;-85
2023/01/13 08:15:48;;;;;;;25.27;5.07;;;7.40;99.90;;;;;;5049133;28;20098;-86
2023/01/13 08:18:16;;;;;;;20.17;4.45;;;7.30;99.90;;;;;;5061757;28;20041;-87
2023/01/13 08:20:42;;;;;;;21.88;4.28;;;7.40;99.90;;;;;;5045100;28;20033;-86
2023/01/13 08:23:08;;;;;;;21.52;4.63;;;7.40;99.90;;;;;;5044189;28;20041;-86
2023/01/13 08:25:33;;;;;;;27.33;4.70;;;7.40;99.90;;;;;;5047239;28;20101;-86
2023/01/13 08:27:59;;;;;;;24.98;5.72;;;7.50;99.90;;;;;;5058465;28;20044;-86
2023/01/13 08:30:26;;;;;;;19.10;4.20;;;7.50;99.90;;;;;;5027970;28;20047;-86
2023/01/13 08:32:53;;;;;;;21.15;4.22;;;7.50;99.90;;;;;;5045542;28;20048;-86
2023/01/13 08:35:19;;;;;;;25.27;4.70;;;7.50;99.90;;;;;;5058345;28;20062;-86
2023/01/13 08:37:46;;;;;;;25.48;4.65;;;7.60;99.90;;;;;;5056683;28;20032;-86
2023/01/13 08:40:14;;;;;;;22.75;4.40;;;7.80;99.90;;;;;;5050227;28;20055;-86
2023/01/13 08:42:40;;;;;;;23.27;4.10;;;7.60;99.90;;;;;;5059054;28;20545;-86
2023/01/13 08:45:06;;;;;;;23.85;5.20;;;7.60;99.90;;;;;;5038905;28;20095;-86
2023/01/13 08:47:32;;;;;;;23.73;4.47;;;7.60;99.90;;;;;;5045317;28;20040;-86
2023/01/13 08:49:58;;;;;;;18.52;3.90;;;7.70;99.90;;;;;;5032176;28;20047;-86
2023/01/13 08:52:23;;;;;;;23.52;4.35;;;7.70;99.90;;;;;;5024753;28;20460;-86
2023/01/13 08:54:49;;;;;;;21.00;4.38;;;7.80;99.90;;;;;;5048467;28;20036;-86
2023/01/13 08:57:15;;;;;;;25.40;4.90;;;7.80;99.90;;;;;;5062999;28;20071;-85
2023/01/13 08:59:45;;;;;;;23.75;4.38;;;7.80;99.90;;;;;;5049880;28;20037;-86
2023/01/13 09:02:17;;;;;;;27.75;5.22;;;7.90;99.90;;;;;;5025763;28;20402;-85
2023/01/13 09:04:43;;;;;;;18.92;4.35;;;7.90;99.90;;;;;;5063967;28;20115;-85
2023/01/13 09:07:09;;;;;;;22.75;4.15;;;7.90;99.90;;;;;;5056165;28;20078;-86
2023/01/13 09:09:35;;;;;;;22.27;4.78;;;7.90;99.90;;;;;;5055504;28;20544;-86
2023/01/13 09:14:45;;;;;;;24.17;4.80;;;7.90;99.90;;;;;;5071548;28;20056;-86
2023/01/13 09:17:11;;;;;;;25.23;5.03;;;8.00;99.90;;;;;;5043145;28;20044;-86
2023/01/13 09:19:37;;;;;;;18.80;3.97;;;7.80;99.90;;;;;;5038142;28;20041;-87
2023/01/13 09:22:03;;;;;;;20.92;4.43;;;7.80;99.90;;;;;;5063329;28;20029;-87
2023/01/13 09:24:29;;;;;;;23.15;4.25;;;7.70;99.90;;;;;;5048163;28;20073;-88
2023/01/13 09:26:55;;;;;;;29.58;5.22;;;7.70;99.90;;;;;;5043815;28;20075;-88
2023/01/13 09:29:20;;;;;;;24.55;4.43;;;7.70;99.90;;;;;;5061662;28;20152;-88
2023/01/13 09:31:46;;;;;;;24.58;4.10;;;7.80;99.90;;;;;;5070591;28;20113;-86
2023/01/13 09:37:05;;;;;;;22.42;4.05;;;7.60;99.90;;;;;;5069869;28;20515;-87
2023/01/13 09:39:32;;;;;;;18.20;4.38;;;7.50;99.90;;;;;;5077768;28;20402;-87
2023/01/13 09:45:10;;;;;;;19.98;3.58;;;7.50;99.90;;;;;;5055796;28;20575;-88
2023/01/13 09:48:17;;;;;;;21.25;4.00;;;7.50;99.90;;;;;;5073560;28;20040;-86
2023/01/13 09:50:46;;;;;;;18.55;3.65;;;7.50;99.90;;;;;;5057390;28;20067;-88
2023/01/13 09:53:35;;;;;;;19.77;3.92;;;7.40;99.90;;;;;;5038980;28;20515;-88
2023/01/13 09:56:01;;;;;;;22.40;4.30;;;7.40;99.90;;;;;;5053921;28;20123;-87
2023/01/13 09:58:27;;;;;;;21.25;3.88;;;7.70;99.90;;;;;;5042222;28;20152;-87
2023/01/13 10:01:31;;;;;;;18.33;3.95;;;7.40;99.90;;;;;;5044388;28;20048;-88
2023/01/13 10:04:03;;;;;;;21.30;5.15;;;7.40;99.90;;;;;;5034017;28;20055;-88
2023/01/13 10:06:40;;;;;;;25.17;4.60;;;7.40;99.90;;;;;;5053332;28;20041;-88
2023/01/13 10:09:27;;;;;;;23.20;4.05;;;7.40;99.90;;;;;;5061534;28;20098;-89
2023/01/13 10:14:49;;;;;;;25.25;5.15;;;7.40;99.90;;;;;;5077206;28;20587;-88
2023/01/13 10:17:29;;;;;;;22.33;4.40;;;7.40;99.90;;;;;;5060721;28;20045;-87
2023/01/13 10:19:59;;;;;;;19.13;4.15;;;7.40;99.90;;;;;;5060836;28;20041;-88
2023/01/13 10:22:41;;;;;;;21.70;3.92;;;7.40;99.90;;;;;;5067088;28;20032;-88
2023/01/13 10:25:44;;;;;;;22.05;4.10;;;7.40;99.90;;;;;;5075672;28;20083;-88
2023/01/13 10:28:13;;;;;;;20.45;4.35;;;7.40;99.90;;;;;;5040050;28;20044;-87
2023/01/13 10:30:45;;;;;;;14.93;3.58;;;7.50;99.90;;;;;;5067835;28;20036;-88
2023/01/13 10:33:16;;;;;;;24.73;3.90;;;7.50;99.90;;;;;;5060690;28;20059;-88
2023/01/13 10:35:57;;;;;;;19.05;4.03;;;7.50;99.90;;;;;;5040215;28;20037;-87
2023/01/13 10:38:23;;;;;;;21.33;4.20;;;7.60;99.90;;;;;;5060556;28;20505;-87
2023/01/13 10:41:01;;;;;;;15.10;3.33;;;7.60;99.90;;;;;;5076885;28;20055;-86
2023/01/13 10:43:28;;;;;;;23.58;4.45;;;7.60;99.90;;;;;;5063592;28;20063;-87
2023/01/13 10:45:59;;;;;;;20.77;3.72;;;7.60;99.90;;;;;;5046491;28;20040;-88
2023/01/13 10:48:56;;;;;;;21.15;3.72;;;7.60;99.90;;;;;;5038694;28;20079;-87
2023/01/13 10:51:29;;;;;;;18.48;4.15;;;7.60;99.90;;;;;;5046918;28;20596;-88
2023/01/13 10:54:19;;;;;;;20.35;4.78;;;7.70;99.90;;;;;;5043374;28;20037;-88
2023/01/13 10:56:45;;;;;;;20.50;4.15;;;7.70;99.90;;;;;;5059216;28;20040;-88
2023/01/13 10:59:25;;;;;;;21.05;4.25;;;7.80;99.90;;;;;;5062534;28;20048;-88
2023/01/13 11:02:09;;;;;;;21.75;4.07;;;7.80;99.90;;;;;;5041428;28;20064;-85
2023/01/13 11:04:42;;;;;;;24.75;3.95;;;7.80;99.90;;;;;;5054404;28;20071;-86
2023/01/13 11:07:28;;;;;;;23.48;3.95;;;7.80;99.90;;;;;;5059912;28;20044;-87
2023/01/13 11:10:13;;;;;;;20.65;3.85;;;7.80;99.90;;;;;;5046844;28;20585;-88
2023/01/13 11:13:02;;;;;;;19.00;3.63;;;7.80;99.90;;;;;;5045060;28;20516;-87
2023/01/13 11:15:45;;;;;;;16.27;3.65;;;7.80;99.90;;;;;;5061303;28;20037;-88
2023/01/13 11:18:36;;;;;;;18.40;3.70;;;7.90;99.90;;;;;;5067113;28;20044;-88
2023/01/13 11:21:08;;;;;;;19.63;3.60;;;7.90;99.90;;;;;;5063593;28;20174;-89
2023/01/13 11:23:46;;;;;;;20.07;4.43;;;7.90;99.90;;;;;;5064256;28;20444;-87
2023/01/13 11:26:21;;;;;;;19.88;3.67;;;7.90;99.90;;;;;;5061419;28;20116;-88
2023/01/13 11:29:03;;;;;;;16.42;3.45;;;7.90;99.90;;;;;;5049666;28;20090;-87
2023/01/13 11:31:38;;;;;;;17.95;3.70;;;7.90;99.90;;;;;;5061112;28;20066;-88
2023/01/13 11:34:12;;;;;;;17.67;3.47;;;7.90;99.90;;;;;;5062126;28;20041;-85
2023/01/13 11:36:48;;;;;;;21.23;4.07;;;7.90;99.90;;;;;;5043256;28;20061;-88
2023/01/13 11:39:36;;;;;;;16.33;3.78;;;8.10;99.90;;;;;;5066513;28;20082;-87
2023/01/13 11:42:19;;;;;;;20.75;4.10;;;8.00;99.90;;;;;;5066011;28;20045;-88
2023/01/13 11:45:07;;;;;;;21.45;3.63;;;8.00;99.90;;;;;;5074600;28;20375;-87
2023/01/13 11:47:35;;;;;;;28.25;4.15;;;8.00;99.90;;;;;;5091429;28;20052;-86
2023/01/13 11:50:01;;;;;;;18.67;3.90;;;8.10;99.90;;;;;;5053132;28;20115;-86
2023/01/13 11:53:10;;;;;;;15.85;3.20;;;8.10;99.90;;;;;;5042380;28;20418;-87
2023/01/13 11:55:41;;;;;;;21.30;4.00;;;7.70;99.90;;;;;;5077276;28;20049;-86
2023/01/13 11:58:44;;;;;;;22.23;3.92;;;8.20;99.90;;;;;;5076071;28;20032;-86
2023/01/13 12:01:55;;;;;;;17.15;3.72;;;8.30;99.90;;;;;;5064634;28;20037;-87
2023/01/13 12:04:42;;;;;;;20.48;4.07;;;8.30;99.90;;;;;;5062564;28;20040;-87
2023/01/13 12:07:46;;;;;;;15.73;3.30;;;8.40;99.90;;;;;;5079463;28;20046;-87
2023/01/13 12:10:40;;;;;;;13.63;3.20;;;8.40;99.90;;;;;;5033755;28;20087;-87
2023/01/13 12:13:32;;;;;;;18.13;3.25;;;8.40;99.90;;;;;;5060288;28;20082;-88
2023/01/13 12:16:08;;;;;;;19.70;3.72;;;8.40;99.90;;;;;;5056383;28;20066;-87
2023/01/13 12:18:41;;;;;;;16.90;3.38;;;8.40;99.90;;;;;;5046089;28;20045;-87
2023/01/13 12:21:28;;;;;;;15.40;3.10;;;8.40;99.90;;;;;;5064077;28;20060;-88
2023/01/13 12:24:09;;;;;;;16.52;3.13;;;8.40;99.90;;;;;;5061857;28;20094;-87
2023/01/13 12:26:40;;;;;;;20.13;3.38;;;8.40;99.90;;;;;;5065015;28;20044;-88
2023/01/13 12:29:13;;;;;;;14.93;3.42;;;8.40;99.90;;;;;;5062982;28;20094;-85
2023/01/13 12:31:40;;;;;;;13.63;2.85;;;8.40;99.90;;;;;;5065611;28;20332;-85
2023/01/13 12:34:41;;;;;;;18.58;3.15;;;8.60;99.90;;;;;;5071593;28;20075;-87
2023/01/13 12:37:13;;;;;;;13.75;3.30;;;8.40;99.90;;;;;;5065574;28;20522;-87
2023/01/13 12:39:57;;;;;;;15.65;2.88;;;8.40;99.90;;;;;;5039551;28;20142;-88
2023/01/13 12:45:28;;;;;;;18.35;3.63;;;8.50;99.90;;;;;;5078884;28;20037;-87
2023/01/13 12:47:55;;;;;;;14.60;3.35;;;8.60;99.90;;;;;;5057847;28;20032;-87
2023/01/13 12:50:20;;;;;;;16.33;3.50;;;8.60;99.90;;;;;;5060626;28;20033;-87
2023/01/13 12:52:50;;;;;;;13.52;2.53;;;8.60;99.90;;;;;;5060165;28;20413;-87
2023/01/13 12:55:21;;;;;;;14.00;3.13;;;8.70;99.90;;;;;;5047170;28;20128;-87
2023/01/13 12:58:05;;;;;;;14.00;2.97;;;8.70;99.90;;;;;;5045052;28;20444;-87
2023/01/13 13:00:40;;;;;;;18.58;3.58;;;8.70;99.90;;;;;;5039499;28;20033;-87
2023/01/13 13:03:15;;;;;;;14.65;2.90;;;8.70;99.90;;;;;;5060598;28;20024;-86
2023/01/13 13:05:44;;;;;;;16.27;3.67;;;8.70;99.90;;;;;;5055518;28;20123;-87
2023/01/13 13:08:13;;;;;;;15.85;2.75;;;8.80;99.90;;;;;;5059523;28;20045;-86
2023/01/13 13:10:54;;;;;;;14.48;2.92;;;8.80;99.90;;;;;;5045786;28;20041;-86
2023/01/13 13:13:43;;;;;;;13.73;2.58;;;8.90;99.90;;;;;;5060495;28;20055;-86
2023/01/13 13:16:25;;;;;;;12.85;2.50;;;8.90;99.90;;;;;;5058244;28;20569;-87
2023/01/13 13:18:51;;;;;;;15.75;2.90;;;9.00;99.90;;;;;;5055699;28;20119;-86
2023/01/13 13:21:17;;;;;;;13.80;3.05;;;9.00;99.90;;;;;;5063557;28;20095;-87
2023/01/13 13:23:53;;;;;;;14.45;2.70;;;9.00;99.90;;;;;;5044449;28;20456;-87
2023/01/13 13:26:27;;;;;;;13.25;3.55;;;8.90;99.90;;;;;;5046251;28;20112;-85
2023/01/13 13:29:18;;;;;;;15.35;3.20;;;8.90;99.90;;;;;;5044253;28;20048;-86
2023/01/13 13:32:03;;;;;;;14.43;2.53;;;8.90;99.90;;;;;;5059024;28;20124;-85
2023/01/13 13:34:37;;;;;;;14.52;2.88;;;9.00;99.90;;;;;;5071215;28;20044;-85
2023/01/13 13:37:22;;;;;;;17.38;3.33;;;8.90;99.90;;;;;;5061778;28;20789;-87
2023/01/13 13:48:29;;;;;;;17.70;3.70;;;8.70;99.90;;;;;;5081557;28;20049;-85
2023/01/13 13:51:01;;;;;;;12.55;2.50;;;8.60;99.90;;;;;;5069115;28;20040;-87
2023/01/13 13:53:39;;;;;;;14.70;2.90;;;8.60;99.90;;;;;;5077355;28;20048;-87
2023/01/13 13:56:15;;;;;;;16.17;2.83;;;8.60;99.90;;;;;;5044036;28;20040;-85
2023/01/13 13:58:41;;;;;;;14.55;3.05;;;8.60;99.90;;;;;;5058520;28;20036;-85
2023/01/13 14:01:22;;;;;;;12.77;2.72;;;8.60;99.90;;;;;;5062461;28;20032;-85
2023/01/13 14:04:16;;;;;;;11.75;2.75;;;8.60;99.90;;;;;;5055293;28;20039;-87
2023/01/13 14:07:00;;;;;;;12.98;2.90;;;8.70;99.90;;;;;;5055662;28;20052;-87